createdAt,value
2018-07-30T00:00:14.309Z,3.60
2018-07-30T00:02:43.943Z,3.47
2018-07-30T00:05:13.877Z,3.47
2018-07-30T00:07:43.644Z,3.58
2018-07-30T00:10:13.317Z,3.52
2018-07-30T00:12:42.934Z,3.65
2018-07-30T00:15:12.612Z,3.63
2018-07-30T00:17:42.278Z,3.70
2018-07-30T00:20:11.980Z,3.27
2018-07-30T00:22:41.678Z,3.50
2018-07-30T00:25:11.407Z,3.10
2018-07-30T00:27:41.173Z,3.83
2018-07-30T00:30:10.811Z,3.30
2018-07-30T00:32:40.453Z,3.80
2018-07-30T00:35:10.136Z,3.70
2018-07-30T00:37:39.832Z,3.92
2018-07-30T00:40:13.659Z,3.93
2018-07-30T00:42:44.273Z,3.43
2018-07-30T00:45:13.991Z,3.43
2018-07-30T00:47:43.900Z,3.30
2018-07-30T00:50:13.594Z,3.60
2018-07-30T00:52:43.195Z,3.87
2018-07-30T00:55:12.816Z,3.30
2018-07-30T00:57:42.487Z,3.42
2018-07-30T01:00:12.140Z,3.40
2018-07-30T01:02:41.746Z,3.57
2018-07-30T01:05:11.423Z,3.23
2018-07-30T01:07:41.058Z,3.50
2018-07-30T01:10:10.726Z,3.57
2018-07-30T01:12:40.394Z,3.73
2018-07-30T01:15:10.119Z,3.60
2018-07-30T01:17:39.761Z,4.10
2018-07-30T01:20:09.476Z,4.40
2018-07-30T01:22:39.129Z,3.37
2018-07-30T01:25:08.769Z,3.80
2018-07-30T01:27:38.474Z,3.77
2018-07-30T01:30:08.626Z,3.60
2018-07-30T01:32:38.319Z,3.67
2018-07-30T01:35:08.063Z,3.70
2018-07-30T01:37:37.711Z,3.50
2018-07-30T01:40:07.440Z,3.00
2018-07-30T01:42:37.080Z,3.23
2018-07-30T01:45:06.884Z,3.90
2018-07-30T01:47:36.560Z,3.70
2018-07-30T01:50:06.387Z,3.67
2018-07-30T01:52:36.078Z,3.73
2018-07-30T01:55:05.717Z,3.73
2018-07-30T01:57:35.411Z,3.70
2018-07-30T02:00:05.682Z,3.57
2018-07-30T02:02:40.716Z,3.40
2018-07-30T02:05:10.358Z,3.30
2018-07-30T02:07:40.809Z,3.83
2018-07-30T02:10:11.704Z,3.20
2018-07-30T02:12:41.458Z,3.30
2018-07-30T02:15:11.184Z,3.50
2018-07-30T02:17:40.827Z,3.10
2018-07-30T02:20:10.543Z,3.77
2018-07-30T02:22:40.168Z,3.73
2018-07-30T02:25:10.332Z,3.43
2018-07-30T02:27:39.975Z,3.30
2018-07-30T02:30:10.092Z,3.47
2018-07-30T02:32:40.044Z,3.30
2018-07-30T02:35:10.097Z,3.60
2018-07-30T02:37:39.808Z,3.63
2018-07-30T02:40:09.596Z,3.40
2018-07-30T02:42:39.228Z,3.67
2018-07-30T02:45:08.980Z,3.30
2018-07-30T02:47:38.735Z,3.73
2018-07-30T02:50:08.491Z,3.43
2018-07-30T02:52:38.193Z,3.40
2018-07-30T02:55:07.892Z,3.60
2018-07-30T02:57:37.620Z,3.50
2018-07-30T03:00:08.160Z,3.97
2018-07-30T03:02:38.050Z,3.80
2018-07-30T03:05:07.754Z,3.37
2018-07-30T03:07:37.463Z,3.60
2018-07-30T03:10:07.494Z,3.33
2018-07-30T03:12:37.513Z,3.40
2018-07-30T03:15:07.507Z,3.90
2018-07-30T03:17:37.404Z,3.90
2018-07-30T03:20:07.044Z,3.60
2018-07-30T03:22:36.724Z,3.63
2018-07-30T03:25:07.673Z,3.30
2018-07-30T03:27:37.325Z,3.63
2018-07-30T03:30:08.933Z,3.57
2018-07-30T03:32:38.656Z,3.80
2018-07-30T03:35:08.967Z,4.00
2018-07-30T03:37:38.611Z,3.80
2018-07-30T03:40:08.533Z,3.60
2018-07-30T03:42:38.241Z,3.80
2018-07-30T03:45:09.255Z,3.60
2018-07-30T03:47:38.931Z,3.70
2018-07-30T03:50:08.620Z,3.57
2018-07-30T03:52:38.360Z,3.40
2018-07-30T03:55:08.011Z,4.00
2018-07-30T03:57:37.669Z,3.70
2018-07-30T04:00:10.113Z,3.40
2018-07-30T04:02:39.910Z,3.63
2018-07-30T04:05:09.584Z,3.27
2018-07-30T04:07:39.271Z,3.80
2018-07-30T04:10:10.022Z,3.50
2018-07-30T04:12:46.211Z,3.73
2018-07-30T04:15:15.856Z,3.60
2018-07-30T04:17:45.570Z,3.70
2018-07-30T04:20:15.255Z,3.50
2018-07-30T04:22:44.889Z,3.63
2018-07-30T04:25:14.554Z,3.73
2018-07-30T04:27:44.317Z,3.40
2018-07-30T04:30:13.956Z,3.20
2018-07-30T04:32:43.604Z,3.60
2018-07-30T04:35:13.319Z,3.57
2018-07-30T04:37:42.972Z,3.40
2018-07-30T04:40:12.628Z,3.20
2018-07-30T04:42:42.324Z,3.47
2018-07-30T04:45:11.972Z,3.60
2018-07-30T04:47:41.616Z,3.60
2018-07-30T04:50:11.330Z,3.70
2018-07-30T04:52:40.995Z,3.60
2018-07-30T04:55:10.721Z,3.03
2018-07-30T04:57:40.367Z,3.43
2018-07-30T05:00:10.112Z,3.57
2018-07-30T05:02:39.767Z,3.50
2018-07-30T05:05:09.473Z,3.20
2018-07-30T05:07:39.110Z,3.20
2018-07-30T05:10:08.773Z,3.33
2018-07-30T05:12:38.472Z,3.07
2018-07-30T05:15:08.139Z,3.53
2018-07-30T05:17:37.759Z,3.40
2018-07-30T05:20:07.462Z,3.40
2018-07-30T05:22:37.149Z,3.65
2018-07-30T05:25:06.810Z,3.27
2018-07-30T05:27:36.505Z,3.00
2018-07-30T05:30:06.592Z,3.12
2018-07-30T05:32:36.305Z,3.47
2018-07-30T05:35:06.064Z,3.33
2018-07-30T05:37:35.726Z,3.20
2018-07-30T05:40:05.620Z,3.40
2018-07-30T05:42:35.291Z,3.50
2018-07-30T05:45:05.345Z,3.60
2018-07-30T05:47:35.083Z,3.33
2018-07-30T05:50:05.063Z,3.83
2018-07-30T05:52:34.815Z,3.35
2018-07-30T05:55:04.555Z,3.50
2018-07-30T05:57:34.216Z,3.15
2018-07-30T06:00:03.967Z,3.10
2018-07-30T06:02:33.624Z,3.47
2018-07-30T06:05:03.335Z,3.15
2018-07-30T06:07:33.012Z,3.08
2018-07-30T06:10:02.676Z,3.45
2018-07-30T06:12:32.347Z,3.40
2018-07-30T06:15:01.992Z,3.22
2018-07-30T06:17:31.604Z,3.37
2018-07-30T06:20:01.286Z,3.15
2018-07-30T06:22:30.960Z,3.40
2018-07-30T06:25:00.571Z,3.55
2018-07-30T06:27:30.494Z,3.30
2018-07-30T06:30:00.383Z,3.30
2018-07-30T06:32:29.991Z,2.95
2018-07-30T06:34:59.880Z,3.02
2018-07-30T06:37:29.511Z,3.00
2018-07-30T06:39:59.172Z,3.08
2018-07-30T06:42:28.822Z,3.27
2018-07-30T06:44:58.903Z,3.15
2018-07-30T06:47:28.815Z,2.95
2018-07-30T06:49:58.424Z,2.98
2018-07-30T06:52:28.101Z,3.17
2018-07-30T06:54:57.812Z,2.80
2018-07-30T06:57:27.490Z,3.22
2018-07-30T06:59:57.156Z,2.42
2018-07-30T07:02:26.763Z,2.92
2018-07-30T07:04:56.400Z,2.95
2018-07-30T07:07:26.116Z,3.15
2018-07-30T07:09:55.736Z,3.20
2018-07-30T07:12:25.388Z,2.90
2018-07-30T07:14:55.064Z,2.60
2018-07-30T07:17:24.719Z,2.65
2018-07-30T07:19:54.382Z,2.98
2018-07-30T07:22:24.006Z,3.02
2018-07-30T07:24:53.655Z,2.75
2018-07-30T07:27:23.360Z,3.12
2018-07-30T07:29:53.061Z,3.20
2018-07-30T07:32:22.686Z,2.72
2018-07-30T07:34:52.371Z,3.00
2018-07-30T07:37:22.008Z,3.00
2018-07-30T07:39:51.703Z,2.90
2018-07-30T07:42:21.376Z,3.00
2018-07-30T07:44:51.069Z,2.62
2018-07-30T07:47:20.730Z,2.50
2018-07-30T07:49:50.804Z,2.65
2018-07-30T07:52:20.455Z,2.80
2018-07-30T07:54:50.159Z,2.85
2018-07-30T07:57:19.791Z,2.65
2018-07-30T07:59:49.404Z,2.70
2018-07-30T08:02:19.108Z,2.62
2018-07-30T08:04:48.736Z,2.30
2018-07-30T08:07:18.394Z,2.50
2018-07-30T08:09:48.209Z,2.25
2018-07-30T08:12:17.766Z,2.95
2018-07-30T08:14:47.463Z,2.42
2018-07-30T08:17:17.107Z,2.40
2018-07-30T08:19:46.744Z,2.20
2018-07-30T08:22:16.494Z,2.50
2018-07-30T08:24:46.210Z,2.42
2018-07-30T08:27:15.864Z,2.60
2018-07-30T08:29:45.556Z,2.55
2018-07-30T08:32:15.252Z,2.40
2018-07-30T08:34:44.931Z,2.40
2018-07-30T08:37:14.592Z,2.70
2018-07-30T08:39:44.270Z,2.65
2018-07-30T08:42:13.969Z,2.65
2018-07-30T08:44:43.679Z,2.90
2018-07-30T08:47:13.302Z,2.72
2018-07-30T08:49:42.935Z,2.70
2018-07-30T08:52:12.632Z,2.92
2018-07-30T08:54:42.258Z,2.70
2018-07-30T08:57:11.931Z,2.80
2018-07-30T08:59:41.684Z,2.67
2018-07-30T09:02:11.346Z,2.70
2018-07-30T09:04:40.967Z,2.90
2018-07-30T09:07:10.738Z,2.75
2018-07-30T09:09:40.411Z,2.47
2018-07-30T09:12:10.128Z,2.42
2018-07-30T09:14:39.944Z,2.60
2018-07-30T09:17:09.630Z,2.58
2018-07-30T09:19:39.287Z,2.50
2018-07-30T09:22:08.956Z,2.37
2018-07-30T09:24:38.580Z,2.75
2018-07-30T09:27:08.312Z,2.58
2018-07-30T09:29:37.907Z,2.60
2018-07-30T09:32:07.826Z,2.80
2018-07-30T09:34:37.563Z,2.60
2018-07-30T09:37:07.228Z,2.30
2018-07-30T09:39:36.896Z,2.33
2018-07-30T09:42:06.703Z,2.40
2018-07-30T09:44:36.391Z,2.42
2018-07-30T09:47:06.337Z,2.35
2018-07-30T09:49:35.997Z,2.20
2018-07-30T09:52:05.669Z,2.30
2018-07-30T09:54:35.355Z,2.35
2018-07-30T09:57:05.008Z,2.50
2018-07-30T09:59:34.692Z,2.83
2018-07-30T10:02:04.467Z,2.55
2018-07-30T10:04:34.127Z,2.47
2018-07-30T10:07:03.785Z,2.72
2018-07-30T10:09:33.477Z,2.52
2018-07-30T10:12:03.110Z,2.22
2018-07-30T10:14:32.747Z,2.67
2018-07-30T10:17:02.464Z,2.40
2018-07-30T10:19:32.096Z,2.55
2018-07-30T10:22:01.789Z,2.42
2018-07-30T10:24:31.470Z,2.25
2018-07-30T10:27:01.117Z,2.65
2018-07-30T10:29:30.751Z,2.22
2018-07-30T10:32:00.424Z,2.30
2018-07-30T10:34:30.186Z,2.72
2018-07-30T10:36:59.811Z,2.55
2018-07-30T10:39:29.491Z,2.40
2018-07-30T10:41:59.120Z,2.40
2018-07-30T10:44:28.728Z,2.62
2018-07-30T10:46:58.415Z,2.60
2018-07-30T10:49:28.080Z,2.30
2018-07-30T10:51:57.724Z,2.80
2018-07-30T10:54:27.411Z,2.52
2018-07-30T10:56:57.024Z,2.70
2018-07-30T10:59:26.668Z,2.30
2018-07-30T11:01:56.321Z,2.60
2018-07-30T11:04:25.951Z,2.47
2018-07-30T11:06:55.848Z,2.80
2018-07-30T11:09:26.775Z,2.45
2018-07-30T11:11:55.236Z,3.42
2018-07-30T11:14:24.862Z,2.40
2018-07-30T11:16:54.552Z,2.60
2018-07-30T11:19:24.171Z,2.65
2018-07-30T11:21:53.813Z,2.85
2018-07-30T11:24:23.496Z,2.70
2018-07-30T11:26:53.135Z,2.37
2018-07-30T11:29:22.795Z,2.65
2018-07-30T11:31:52.462Z,2.67
2018-07-30T11:34:22.163Z,2.50
2018-07-30T11:36:51.784Z,3.10
2018-07-30T11:39:21.495Z,2.40
2018-07-30T11:41:51.131Z,3.00
2018-07-30T11:44:20.756Z,2.70
2018-07-30T11:46:50.445Z,2.40
2018-07-30T11:49:20.116Z,2.47
2018-07-30T11:51:49.757Z,2.40
2018-07-30T11:54:19.638Z,2.62
2018-07-30T11:56:49.299Z,2.67
2018-07-30T11:59:18.938Z,2.50
2018-07-30T12:01:48.658Z,2.40
2018-07-30T12:04:18.374Z,2.37
2018-07-30T12:06:48.192Z,2.50
2018-07-30T12:09:17.832Z,2.70
2018-07-30T12:11:47.476Z,2.20
2018-07-30T12:14:17.177Z,2.55
2018-07-30T12:16:46.831Z,2.55
2018-07-30T12:19:16.440Z,2.72
2018-07-30T12:21:46.151Z,2.70
2018-07-30T12:24:15.760Z,2.60
2018-07-30T12:26:45.391Z,2.40
2018-07-30T12:29:15.162Z,2.30
2018-07-30T12:31:44.785Z,2.35
2018-07-30T12:34:14.419Z,2.40
2018-07-30T12:36:44.109Z,2.60
2018-07-30T12:39:13.731Z,2.60
2018-07-30T12:41:43.376Z,2.50
2018-07-30T12:44:13.059Z,2.75
2018-07-30T12:46:42.700Z,2.40
2018-07-30T12:49:12.380Z,2.45
2018-07-30T12:51:42.068Z,2.90
2018-07-30T12:54:11.720Z,3.08
2018-07-30T12:56:41.391Z,2.58
2018-07-30T12:59:11.004Z,2.47
2018-07-30T13:01:40.704Z,2.90
2018-07-30T13:04:10.345Z,2.87
2018-07-30T13:06:39.969Z,2.65
2018-07-30T13:09:09.667Z,2.85
2018-07-30T13:11:39.364Z,2.83
2018-07-30T13:14:09.003Z,2.85
2018-07-30T13:16:38.752Z,2.77
2018-07-30T13:19:08.399Z,2.90
2018-07-30T13:21:38.092Z,2.80
2018-07-30T13:24:07.799Z,2.58
2018-07-30T13:26:37.563Z,2.60
2018-07-30T13:29:07.172Z,2.52
2018-07-30T13:31:36.844Z,2.60
2018-07-30T13:34:06.509Z,2.47
2018-07-30T13:36:36.188Z,2.60
2018-07-30T13:39:08.258Z,2.55
2018-07-30T13:41:38.600Z,2.40
2018-07-30T13:44:08.284Z,2.70
2018-07-30T13:46:37.945Z,2.45
2018-07-30T13:49:08.048Z,2.75
2018-07-30T13:51:37.720Z,2.65
2018-07-30T13:54:07.400Z,2.67
2018-07-30T13:56:37.355Z,2.05
2018-07-30T13:59:06.985Z,2.20
2018-07-30T14:01:36.648Z,2.20
2018-07-30T14:04:06.323Z,2.50
2018-07-30T14:06:35.973Z,2.47
2018-07-30T14:09:08.787Z,2.20
2018-07-30T14:11:38.477Z,2.67
2018-07-30T14:14:08.828Z,2.75
2018-07-30T14:16:38.679Z,2.80
2018-07-30T14:19:08.321Z,2.60
2018-07-30T14:21:38.064Z,2.58
2018-07-30T14:24:07.916Z,2.35
2018-07-30T14:26:37.563Z,2.85
2018-07-30T14:29:07.516Z,2.45
2018-07-30T14:31:37.180Z,2.50
2018-07-30T14:34:06.787Z,2.77
2018-07-30T14:36:36.568Z,2.47
2018-07-30T14:39:08.930Z,2.62
2018-07-30T14:41:38.728Z,2.42
2018-07-30T14:44:08.469Z,2.70
2018-07-30T14:46:38.176Z,2.37
2018-07-30T14:49:07.828Z,2.52
2018-07-30T14:51:37.592Z,2.87
2018-07-30T14:54:07.320Z,2.90
2018-07-30T14:56:36.948Z,2.67
2018-07-30T14:59:06.689Z,2.77
2018-07-30T15:01:36.374Z,2.90
2018-07-30T15:04:06.206Z,2.98
2018-07-30T15:06:35.949Z,2.52
2018-07-30T15:09:09.511Z,2.85
2018-07-30T15:11:39.547Z,2.30
2018-07-30T15:14:09.284Z,2.80
2018-07-30T15:16:39.028Z,2.55
2018-07-30T15:19:09.007Z,2.92
2018-07-30T15:21:38.649Z,2.65
2018-07-30T15:24:08.298Z,2.70
2018-07-30T15:26:37.934Z,2.50
2018-07-30T15:29:07.677Z,2.98
2018-07-30T15:31:37.304Z,3.00
2018-07-30T15:34:07.301Z,2.90
2018-07-30T15:36:36.924Z,2.70
2018-07-30T15:39:09.369Z,2.58
2018-07-30T15:41:39.044Z,2.80
2018-07-30T15:44:08.672Z,3.00
2018-07-30T15:46:38.403Z,2.85
2018-07-30T15:49:08.904Z,2.70
2018-07-30T15:51:38.619Z,2.77
2018-07-30T15:54:08.300Z,2.45
2018-07-30T15:56:37.940Z,3.12
2018-07-30T15:59:07.616Z,2.45
2018-07-30T16:01:37.225Z,2.58
2018-07-30T16:04:06.931Z,2.75
2018-07-30T16:06:36.619Z,2.50
2018-07-30T16:09:07.923Z,2.92
2018-07-30T16:11:37.884Z,2.77
2018-07-30T16:14:07.539Z,3.35
2018-07-30T16:16:37.247Z,2.80
2018-07-30T16:19:07.182Z,3.20
2018-07-30T16:21:36.847Z,2.72
2018-07-30T16:24:06.792Z,2.77
2018-07-30T16:26:36.533Z,2.92
2018-07-30T16:29:06.208Z,2.90
2018-07-30T16:31:35.836Z,2.83
2018-07-30T16:34:05.563Z,2.60
2018-07-30T16:36:35.298Z,3.00
2018-07-30T16:39:06.869Z,2.55
2018-07-30T16:41:36.564Z,2.80
2018-07-30T16:44:06.980Z,2.65
2018-07-30T16:46:36.707Z,2.58
2018-07-30T16:49:06.449Z,2.52
2018-07-30T16:51:36.203Z,2.70
2018-07-30T16:54:05.878Z,2.95
2018-07-30T16:56:35.575Z,2.60
2018-07-30T16:59:05.311Z,2.83
2018-07-30T17:01:34.939Z,2.67
2018-07-30T17:04:04.592Z,2.70
2018-07-30T17:06:34.303Z,2.92
2018-07-30T17:09:04.341Z,2.67
2018-07-30T17:11:34.003Z,2.80
2018-07-30T17:14:03.693Z,2.60
2018-07-30T17:16:33.356Z,2.75
2018-07-30T17:19:03.573Z,3.10
2018-07-30T17:21:33.233Z,3.22
2018-07-30T17:24:02.936Z,2.87
2018-07-30T17:26:32.659Z,2.80
2018-07-30T17:29:02.319Z,3.45
2018-07-30T17:31:31.942Z,3.35
2018-07-30T17:34:01.684Z,3.30
2018-07-30T17:36:31.333Z,2.60
2018-07-30T17:39:01.010Z,2.83
2018-07-30T17:41:30.668Z,2.55
2018-07-30T17:44:00.297Z,3.47
2018-07-30T17:46:29.943Z,3.05
2018-07-30T17:48:59.923Z,2.62
2018-07-30T17:51:29.536Z,2.50
2018-07-30T17:53:59.275Z,2.70
2018-07-30T17:56:28.919Z,3.10
2018-07-30T17:58:58.564Z,2.95
2018-07-30T18:01:28.238Z,2.90
2018-07-30T18:03:57.883Z,3.30
2018-07-30T18:06:27.501Z,2.80
2018-07-30T18:08:57.385Z,2.80
2018-07-30T18:11:27.032Z,2.90
2018-07-30T18:13:56.755Z,2.70
2018-07-30T18:16:26.456Z,2.92
2018-07-30T18:18:56.315Z,2.85
2018-07-30T18:21:25.927Z,2.95
2018-07-30T18:23:55.823Z,3.10
2018-07-30T18:26:25.455Z,2.58
2018-07-30T18:28:55.151Z,3.08
2018-07-30T18:31:24.786Z,2.65
2018-07-30T18:33:54.415Z,2.72
2018-07-30T18:36:24.108Z,2.50
2018-07-30T18:38:53.759Z,2.85
2018-07-30T18:41:23.391Z,2.80
2018-07-30T18:43:53.115Z,3.10
2018-07-30T18:46:22.796Z,3.60
2018-07-30T18:48:52.435Z,3.15
2018-07-30T18:51:22.148Z,3.08
2018-07-30T18:53:51.771Z,3.37
2018-07-30T18:56:21.481Z,2.85
2018-07-30T18:58:51.168Z,3.20
2018-07-30T19:01:20.827Z,2.72
2018-07-30T19:03:50.532Z,2.87
2018-07-30T19:06:20.207Z,3.52
2018-07-30T19:08:49.898Z,3.00
2018-07-30T19:11:19.880Z,4.00
2018-07-30T19:13:49.581Z,3.50
2018-07-30T19:16:19.322Z,3.40
2018-07-30T19:18:49.020Z,3.00
2018-07-30T19:21:18.745Z,3.12
2018-07-30T19:23:48.416Z,3.17
2018-07-30T19:26:18.156Z,3.40
2018-07-30T19:28:47.812Z,3.22
2018-07-30T19:31:17.632Z,3.00
2018-07-30T19:33:47.385Z,2.80
2018-07-30T19:36:17.043Z,2.75
2018-07-30T19:38:46.692Z,2.72
2018-07-30T19:41:16.436Z,2.83
2018-07-30T19:43:46.092Z,3.10
2018-07-30T19:46:15.754Z,2.70
2018-07-30T19:48:45.458Z,3.47
2018-07-30T19:51:15.131Z,3.40
2018-07-30T19:53:44.794Z,3.08
2018-07-30T19:56:14.498Z,3.10
2018-07-30T19:58:44.962Z,3.17
2018-07-30T20:01:14.680Z,2.67
2018-07-30T20:03:44.376Z,2.72
2018-07-30T20:06:14.103Z,3.22
2018-07-30T20:08:43.782Z,3.30
2018-07-30T20:11:14.061Z,3.17
2018-07-30T20:13:43.703Z,3.20
2018-07-30T20:16:13.440Z,3.35
2018-07-30T20:18:43.472Z,3.40
2018-07-30T20:21:13.262Z,3.60
2018-07-30T20:23:43.003Z,3.27
2018-07-30T20:26:12.712Z,3.20
2018-07-30T20:28:42.446Z,3.12
2018-07-30T20:31:16.191Z,2.87
2018-07-30T20:33:45.941Z,3.45
2018-07-30T20:36:15.835Z,3.08
2018-07-30T20:38:45.548Z,3.47
2018-07-30T20:41:15.279Z,3.67
2018-07-30T20:43:45.144Z,3.27
2018-07-30T20:46:14.813Z,3.12
2018-07-30T20:48:44.476Z,3.25
2018-07-30T20:51:14.323Z,3.30
2018-07-30T20:53:44.036Z,3.17
2018-07-30T20:56:13.736Z,2.92
2018-07-30T20:58:43.375Z,3.12
2018-07-30T21:01:13.052Z,3.30
2018-07-30T21:03:42.875Z,3.37
2018-07-30T21:06:12.493Z,3.05
2018-07-30T21:08:42.312Z,3.72
2018-07-30T21:11:12.181Z,3.37
2018-07-30T21:13:41.971Z,4.12
2018-07-30T21:16:11.710Z,3.37
2018-07-30T21:18:41.421Z,3.40
2018-07-30T21:21:11.103Z,3.55
2018-07-30T21:23:40.755Z,3.62
2018-07-30T21:26:10.480Z,3.60
2018-07-30T21:28:40.147Z,3.90
2018-07-30T21:31:09.781Z,4.00
2018-07-30T21:33:40.427Z,4.15
2018-07-30T21:36:10.069Z,3.83
2018-07-30T21:38:39.745Z,4.28
2018-07-30T21:41:09.412Z,3.60
2018-07-30T21:43:39.059Z,3.98
2018-07-30T21:46:08.709Z,3.58
2018-07-30T21:48:38.436Z,3.80
2018-07-30T21:51:08.378Z,3.40
2018-07-30T21:53:38.421Z,3.50
2018-07-30T21:56:08.500Z,3.60
2018-07-30T21:58:38.188Z,3.67
2018-07-30T22:01:07.940Z,3.85
2018-07-30T22:03:37.576Z,4.10
2018-07-30T22:06:07.311Z,3.62
2018-07-30T22:08:36.984Z,3.30
2018-07-30T22:11:06.688Z,3.70
2018-07-30T22:13:36.392Z,3.50
2018-07-30T22:16:06.172Z,3.20
2018-07-30T22:18:35.818Z,3.85
2018-07-30T22:21:05.600Z,3.50
2018-07-30T22:23:35.231Z,3.60
2018-07-30T22:26:04.979Z,3.72
2018-07-30T22:28:34.667Z,3.62
2018-07-30T22:31:04.405Z,4.03
2018-07-30T22:33:34.076Z,3.50
2018-07-30T22:36:03.771Z,3.45
2018-07-30T22:38:33.432Z,3.85
2018-07-30T22:41:03.124Z,4.15
2018-07-30T22:43:32.750Z,3.75
2018-07-30T22:46:02.436Z,3.95
2018-07-30T22:48:32.102Z,3.85
2018-07-30T22:51:01.739Z,3.87
2018-07-30T22:53:31.420Z,4.10
2018-07-30T22:56:01.044Z,3.52
2018-07-30T22:58:30.671Z,3.95
2018-07-30T23:01:00.568Z,3.95
2018-07-30T23:03:30.182Z,4.10
2018-07-30T23:05:59.857Z,3.80
2018-07-30T23:08:29.520Z,3.60
2018-07-30T23:10:59.192Z,4.22
2018-07-30T23:13:28.844Z,4.45
2018-07-30T23:15:58.623Z,4.10
2018-07-30T23:18:28.270Z,3.65
2018-07-30T23:20:57.928Z,4.12
2018-07-30T23:23:27.646Z,4.00
2018-07-30T23:25:57.291Z,3.85
2018-07-30T23:28:26.900Z,4.10
2018-07-30T23:30:56.577Z,4.17
2018-07-30T23:33:26.228Z,3.98
2018-07-30T23:35:55.867Z,4.30
2018-07-30T23:38:25.569Z,4.15
2018-07-30T23:40:55.212Z,4.12
2018-07-30T23:43:24.832Z,4.25
2018-07-30T23:45:54.511Z,4.10
2018-07-30T23:48:24.170Z,4.30
2018-07-30T23:50:53.805Z,4.53
2018-07-30T23:53:23.732Z,4.45
2018-07-30T23:55:53.371Z,4.72
2018-07-30T23:58:22.984Z,4.22
